Home   Weather   Mackinac Island   Past weeks
Flag for USA

Past Weather in Mackinac Island, Michigan, USA — Yesterday and Last 2 Weeks

Currently: 56 °F. Passing clouds. (Weather station: Schoolcraft County Airport, USA). See more current weather

Past Weather in Mackinac Island — Graph

°F

Mackinac Island Temperature Yesterday

Maximum temperature yesterday: 74 °F (at 12:15 pm)
Minimum temperature yesterday: 60 °F (at 11:55 pm)
Average temperature yesterday: 65 °F

High & Low Weather Summary for the Past Weeks

 TemperatureHumidityPressure
High74 °F (Jun 17, 2:15 pm)99% (Jun 5, 11:55 am)30.36 "Hg (Jun 5, 11:55 am)
Low34 °F (Jun 11, 6:15 am)35% (Jun 10, 5:15 pm)29.43 "Hg (Jun 6, 4:15 am)
Average58 °F82%29.84 "Hg
* Reported Jun 5 5:15 am — Jun 20 5:15 am, Mackinac Island. Weather by CustomWeather, © 2024

Note: Actual official high and low records may vary slightly from our data, if they occured in-between our weather recording intervals... More about our weather records

Mackinac Island Weather History for the Previous 24 Hours

Scroll right to see more
 ConditionsComfort  
Time TempWeatherWind HumidityBarometerVisibility
5:15 am
Thu, Jun 20
56 °FPassing clouds.3 mph91%30.36 "Hg10 mi
4:35 am56 °FPassing clouds.No wind91%30.35 "Hg10 mi
4:15 am56 °FClear.No wind94%30.35 "Hg10 mi
3:35 am57 °FPassing clouds.No wind92%30.34 "Hg10 mi
3:15 am57 °FPassing clouds.No wind92%30.33 "Hg10 mi
2:55 am57 °FPassing clouds.No wind95%30.33 "Hg10 mi
2:35 am57 °FPartly cloudy.No wind91%30.32 "Hg10 mi
2:15 am57 °FLight rain. Mostly cloudy.3 mph90%30.33 "Hg10 mi
1:55 am58 °FLight rain. Mostly cloudy.3 mph90%30.33 "Hg10 mi
1:35 am58 °FLight rain. Mostly cloudy.3 mph89%30.33 "Hg10 mi
1:15 am58 °FOvercast.5 mph89%30.33 "Hg10 mi
12:55 am59 °FOvercast.3 mph89%30.32 "Hg10 mi
12:35 am59 °FOvercast.3 mph88%30.32 "Hg10 mi
12:15 am59 °FOvercast.5 mph87%30.31 "Hg10 mi
11:55 pm
Wed, Jun 19
60 °FOvercast.6 mph86%30.31 "Hg10 mi
11:35 pm60 °FOvercast.6 mph89%30.31 "Hg10 mi
10:55 pm61 °FOvercast.6 mph89%30.31 "Hg10 mi
10:35 pm62 °FOvercast.5 mph87%30.29 "Hg10 mi
9:55 pm63 °FOvercast.3 mph96%30.28 "Hg10 mi
9:35 pm63 °FDrizzle. Overcast.No wind95%30.27 "Hg10 mi
9:15 pm63 °FRain. More clouds than sun.No wind93%30.27 "Hg7 mi
8:55 pm64 °FDrizzle. Overcast.5 mph93%30.26 "Hg10 mi
8:35 pm64 °FDrizzle. Overcast.No wind96%30.26 "Hg10 mi
8:15 pm64 °FHeavy rain. Overcast.No wind94%30.24 "Hg4 mi
7:55 pm65 °FOvercast.3 mph92%30.24 "Hg10 mi
7:35 pm65 °FMostly cloudy.No wind93%30.23 "Hg10 mi
6:55 pm66 °FDrizzle. Overcast.3 mph89%30.23 "Hg10 mi
6:35 pm67 °FOvercast.3 mph88%30.22 "Hg10 mi
6:15 pm67 °FOvercast.3 mph87%30.22 "Hg10 mi
5:35 pm67 °FMostly cloudy.7 mph84%30.21 "Hg10 mi
5:15 pm68 °FMostly cloudy.7 mph85%30.21 "Hg10 mi
4:55 pm68 °FOvercast.5 mph87%30.21 "Hg10 mi
4:35 pm69 °FOvercast.8 mph89%30.19 "Hg10 mi
4:15 pm71 °FRain. Overcast.8 mph78%30.19 "Hg10 mi
3:35 pm69 °FCloudy.6 mph84%30.17 "Hg10 mi
3:15 pm67 °FMore clouds than sun.9 mph86%30.16 "Hg10 mi
2:55 pm68 °FMostly cloudy.8 mph85%30.16 "Hg10 mi
2:35 pm67 °FCloudy.8 mph86%30.15 "Hg10 mi
2:15 pm69 °FPartly sunny.9 mph85%30.14 "Hg10 mi
1:55 pm67 °FPartly sunny.7 mph90%30.14 "Hg10 mi
1:35 pm67 °FCloudy.6 mph93%30.12 "Hg10 mi
1:15 pm67 °FLight rain. Broken clouds.6 mph90%30.12 "Hg10 mi
12:55 pm68 °FPartly sunny.6 mph84%30.11 "Hg10 mi
12:35 pm71 °FBroken clouds.8 mph81%30.10 "Hg10 mi
12:15 pm74 °FScattered clouds.7 mph74%30.09 "Hg10 mi
11:55 am70 °FSunny.8 mph80%30.08 "Hg10 mi
11:35 am69 °FSunny.6 mph82%30.07 "Hg10 mi
11:15 am65 °FSunny.6 mph86%30.07 "Hg10 mi
10:55 am66 °FSunny.6 mph84%30.06 "Hg10 mi
10:35 am66 °FSunny.12 mph83%30.05 "Hg10 mi
10:15 am64 °FSunny.13 mph85%30.04 "Hg10 mi
9:35 am64 °FSunny.12 mph85%30.03 "Hg10 mi
9:15 am65 °FSunny.13 mph85%30.02 "Hg10 mi
8:55 am64 °FSunny.9 mph86%30.01 "Hg10 mi
8:35 am64 °FSunny.8 mph87%30.01 "Hg10 mi
8:15 am63 °FSunny.8 mph88%30.00 "Hg10 mi
7:35 am63 °FScattered clouds.3 mph90%29.99 "Hg10 mi
7:15 am63 °FOvercast.5 mph91%29.98 "Hg10 mi
6:55 am62 °FOvercast.5 mph92%29.98 "Hg10 mi
6:35 am62 °FCloudy.8 mph92%29.97 "Hg10 mi
6:15 am62 °FBroken clouds.7 mph92%29.97 "Hg10 mi
Weather by CustomWeather, © 2024

See weather overview